createdAt,value
2018-03-18T00:00:52.490Z,3.7
2018-03-18T00:01:54.898Z,3.7
2018-03-18T00:02:57.320Z,3.7
2018-03-18T00:03:59.727Z,3.8
2018-03-18T00:05:02.149Z,3.8
2018-03-18T00:06:04.565Z,3.8
2018-03-18T00:07:06.978Z,3.8
2018-03-18T00:08:09.392Z,3.8
2018-03-18T00:09:11.804Z,3.7
2018-03-18T00:10:14.219Z,3.7
2018-03-18T00:11:16.648Z,3.7
2018-03-18T00:12:19.449Z,3.8
2018-03-18T00:13:21.859Z,4
2018-03-18T00:14:24.276Z,4.7
2018-03-18T00:15:26.986Z,3.8
2018-03-18T00:16:29.389Z,3.8
2018-03-18T00:17:31.811Z,3.8
2018-03-18T00:18:34.239Z,3.7
2018-03-18T00:19:36.674Z,3.7
2018-03-18T00:20:39.072Z,3.7
2018-03-18T00:21:41.771Z,3.6
2018-03-18T00:22:44.181Z,3.7
2018-03-18T00:23:46.602Z,3.8
2018-03-18T00:24:49.014Z,3.9
2018-03-18T00:25:51.418Z,3.7
2018-03-18T00:26:53.847Z,3.7
2018-03-18T00:27:56.551Z,3.7
2018-03-18T00:28:58.966Z,3.6
2018-03-18T00:30:01.386Z,3.6
2018-03-18T00:31:03.788Z,3.7
2018-03-18T00:32:06.196Z,3.7
2018-03-18T00:33:08.617Z,3.7
2018-03-18T00:34:11.029Z,3.8
2018-03-18T00:35:13.443Z,3.8
2018-03-18T00:36:15.864Z,3.8
2018-03-18T00:37:18.274Z,3.9
2018-03-18T00:38:20.990Z,3.7
2018-03-18T00:39:23.695Z,3.7
2018-03-18T00:40:26.096Z,3.7
2018-03-18T00:41:28.808Z,3.7
2018-03-18T00:42:31.522Z,3.7
2018-03-18T00:43:34.221Z,3.7
2018-03-18T00:44:36.916Z,3.6
2018-03-18T00:45:39.331Z,3.7
2018-03-18T00:46:41.750Z,3.6
2018-03-18T00:47:44.450Z,3.7
2018-03-18T00:48:46.874Z,3.7
2018-03-18T00:49:49.297Z,3.9
2018-03-18T00:50:51.695Z,4
2018-03-18T00:51:54.123Z,3.9
2018-03-18T00:52:56.533Z,3.7
2018-03-18T00:53:58.946Z,3.7
2018-03-18T00:55:01.960Z,3.7
2018-03-18T00:56:04.374Z,3.7
2018-03-18T00:57:07.353Z,3.7
2018-03-18T00:58:10.379Z,3.8
2018-03-18T00:59:12.788Z,3.7
2018-03-18T01:00:15.202Z,3.7
2018-03-18T01:01:17.626Z,3.7
2018-03-18T01:02:20.041Z,3.7
2018-03-18T01:03:22.465Z,3.8
2018-03-18T01:04:24.891Z,3.8
2018-03-18T01:05:27.597Z,3.9
2018-03-18T01:06:30.021Z,3.8
2018-03-18T01:07:32.435Z,3.9
2018-03-18T01:08:34.853Z,3.6
2018-03-18T01:09:37.269Z,3.7
2018-03-18T01:10:39.689Z,3.7
2018-03-18T01:11:42.097Z,3.6
2018-03-18T01:12:44.511Z,3.6
2018-03-18T01:13:46.931Z,3.7
2018-03-18T01:14:49.348Z,3.8
2018-03-18T01:15:51.762Z,3.8
2018-03-18T01:16:54.169Z,3.8
2018-03-18T01:17:56.590Z,4
2018-03-18T01:18:59.289Z,3.7
2018-03-18T01:20:01.701Z,3.6
2018-03-18T01:21:04.118Z,3.6
2018-03-18T01:22:06.816Z,3.6
2018-03-18T01:23:09.231Z,3.6
2018-03-18T01:24:11.651Z,3.6
2018-03-18T01:25:14.054Z,3.9
2018-03-18T01:26:16.481Z,3.7
2018-03-18T01:27:18.889Z,3.7
2018-03-18T01:28:21.304Z,3.7
2018-03-18T01:29:23.706Z,3.6
2018-03-18T01:30:26.125Z,3.7
2018-03-18T01:31:28.542Z,3.6
2018-03-18T01:32:30.964Z,3.6
2018-03-18T01:33:33.382Z,3.8
2018-03-18T01:34:35.795Z,3.7
2018-03-18T01:35:38.220Z,3.7
2018-03-18T01:36:40.916Z,3.7
2018-03-18T01:37:43.332Z,3.8
2018-03-18T01:38:46.058Z,3.8
2018-03-18T01:39:48.461Z,3.6
2018-03-18T01:40:51.162Z,3.6
2018-03-18T01:41:53.576Z,3.6
2018-03-18T01:42:55.998Z,3.5
2018-03-18T01:43:58.417Z,3.6
2018-03-18T01:45:00.826Z,3.7
2018-03-18T01:46:03.252Z,3.7
2018-03-18T01:47:05.664Z,3.7
2018-03-18T01:48:08.081Z,3.6
2018-03-18T01:49:10.515Z,3.7
2018-03-18T01:50:12.919Z,3.6
2018-03-18T01:51:15.628Z,3.6
2018-03-18T01:52:18.043Z,3.6
2018-03-18T01:53:20.742Z,3.6
2018-03-18T01:54:23.159Z,3.6
2018-03-18T01:55:25.577Z,3.6
2018-03-18T01:56:27.981Z,3.7
2018-03-18T01:57:30.394Z,3.8
2018-03-18T01:58:32.809Z,3.6
2018-03-18T01:59:35.230Z,3.7
2018-03-18T02:00:37.653Z,3.6
2018-03-18T02:01:40.060Z,3.6
2018-03-18T02:02:42.482Z,3.6
2018-03-18T02:03:45.184Z,3.6
2018-03-18T02:04:47.594Z,3.8
2018-03-18T02:05:50.017Z,3.7
2018-03-18T02:06:52.432Z,3.7
2018-03-18T02:07:54.850Z,3.7
2018-03-18T02:08:57.266Z,3.6
2018-03-18T02:09:59.972Z,3.6
2018-03-18T02:11:02.378Z,3.6
2018-03-18T02:12:05.107Z,3.6
2018-03-18T02:13:07.815Z,3.6
2018-03-18T02:14:10.228Z,3.6
2018-03-18T02:15:12.652Z,3.6
2018-03-18T02:16:15.347Z,3.6
2018-03-18T02:17:17.761Z,3.7
2018-03-18T02:18:20.181Z,3.7
2018-03-18T02:19:22.594Z,3.8
2018-03-18T02:20:25.021Z,3.7
2018-03-18T02:21:27.440Z,3.7
2018-03-18T02:22:29.835Z,3.7
2018-03-18T02:23:32.266Z,3.6
2018-03-18T02:24:34.669Z,3.5
2018-03-18T02:25:37.080Z,3.6
2018-03-18T02:26:39.785Z,3.6
2018-03-18T02:27:42.188Z,3.6
2018-03-18T02:28:44.606Z,3.6
2018-03-18T02:29:47.030Z,3.7
2018-03-18T02:30:49.442Z,3.7
2018-03-18T02:31:51.857Z,3.5
2018-03-18T02:32:54.566Z,3.6
2018-03-18T02:33:57.272Z,3.6
2018-03-18T02:34:59.992Z,3.6
2018-03-18T02:36:02.396Z,3.6
2018-03-18T02:37:04.807Z,3.6
2018-03-18T02:38:07.234Z,3.5
2018-03-18T02:39:09.938Z,3.7
2018-03-18T02:40:12.359Z,3.7
2018-03-18T02:41:14.763Z,3.7
2018-03-18T02:42:17.181Z,3.7
2018-03-18T02:43:19.587Z,3.7
2018-03-18T02:44:22.004Z,3.7
2018-03-18T02:45:24.413Z,3.6
2018-03-18T02:46:26.835Z,3.6
2018-03-18T02:47:29.248Z,3.5
2018-03-18T02:48:31.665Z,3.6
2018-03-18T02:49:34.097Z,3.9
2018-03-18T02:50:36.798Z,3.7
2018-03-18T02:51:39.503Z,3.7
2018-03-18T02:52:41.911Z,3.6
2018-03-18T02:53:44.323Z,3.7
2018-03-18T02:54:46.738Z,3.6
2018-03-18T02:55:49.157Z,3.6
2018-03-18T02:56:51.569Z,3.6
2018-03-18T02:57:53.979Z,3.5
2018-03-18T02:58:56.395Z,3.5
2018-03-18T02:59:58.799Z,3.6
2018-03-18T03:01:01.228Z,3.8
2018-03-18T03:02:03.933Z,3.6
2018-03-18T03:03:06.353Z,3.8
2018-03-18T03:04:08.768Z,3.6
2018-03-18T03:05:11.184Z,3.6
2018-03-18T03:06:13.607Z,3.6
2018-03-18T03:07:16.318Z,3.5
2018-03-18T03:08:18.727Z,3.5
2018-03-18T03:09:21.150Z,3.5
2018-03-18T03:10:23.560Z,3.5
2018-03-18T03:11:25.968Z,3.6
2018-03-18T03:12:28.386Z,3.7
2018-03-18T03:13:30.795Z,3.7
2018-03-18T03:14:33.214Z,3.6
2018-03-18T03:15:35.920Z,3.5
2018-03-18T03:16:38.622Z,3.6
2018-03-18T03:17:41.037Z,3.5
2018-03-18T03:18:43.451Z,3.6
2018-03-18T03:19:45.860Z,3.6
2018-03-18T03:20:48.272Z,3.5
2018-03-18T03:21:50.679Z,3.7
2018-03-18T03:22:53.103Z,3.6
2018-03-18T03:23:55.504Z,3.6
2018-03-18T03:24:57.924Z,3.6
2018-03-18T03:26:00.342Z,3.6
2018-03-18T03:27:03.032Z,3.5
2018-03-18T03:28:05.447Z,3.5
2018-03-18T03:29:07.864Z,3.5
2018-03-18T03:30:10.275Z,3.5
2018-03-18T03:31:12.705Z,3.7
2018-03-18T03:32:15.430Z,3.6
2018-03-18T03:33:17.848Z,3.6
2018-03-18T03:34:20.263Z,3.5
2018-03-18T03:35:22.682Z,3.5
2018-03-18T03:36:25.091Z,3.5
2018-03-18T03:37:27.502Z,3.5
2018-03-18T03:38:29.915Z,3.5
2018-03-18T03:39:32.323Z,3.5
2018-03-18T03:40:34.736Z,3.7
2018-03-18T03:41:37.150Z,3.7
2018-03-18T03:42:39.856Z,3.7
2018-03-18T03:43:42.277Z,3.6
2018-03-18T03:44:44.691Z,3.6
2018-03-18T03:45:47.108Z,3.6
2018-03-18T03:46:49.517Z,3.5
2018-03-18T03:47:51.923Z,3.5
2018-03-18T03:48:54.344Z,3.5
2018-03-18T03:49:57.059Z,3.6
2018-03-18T03:50:59.475Z,3.5
2018-03-18T03:52:02.181Z,3.6
2018-03-18T03:53:04.585Z,3.7
2018-03-18T03:54:07.315Z,3.7
2018-03-18T03:55:10.036Z,3.6
2018-03-18T03:56:12.729Z,3.7
2018-03-18T03:57:15.140Z,3.6
2018-03-18T03:58:17.560Z,3.6
2018-03-18T03:59:19.963Z,3.6
2018-03-18T04:00:22.394Z,3.5
2018-03-18T04:01:24.808Z,3.5
2018-03-18T04:02:27.214Z,3.5
2018-03-18T04:03:29.631Z,3.5
2018-03-18T04:04:32.334Z,3.6
2018-03-18T04:05:34.746Z,3.6
2018-03-18T04:06:37.161Z,3.6
2018-03-18T04:07:39.567Z,3.6
2018-03-18T04:08:41.975Z,3.6
2018-03-18T04:09:44.398Z,3.5
2018-03-18T04:10:46.809Z,3.5
2018-03-18T04:11:49.512Z,3.5
2018-03-18T04:12:51.935Z,3.5
2018-03-18T04:13:54.352Z,3.5
2018-03-18T04:14:56.758Z,3.6
2018-03-18T04:15:59.175Z,3.5
2018-03-18T04:17:01.595Z,3.6
2018-03-18T04:18:04.594Z,3.6
2018-03-18T04:19:07.015Z,3.5
2018-03-18T04:20:09.423Z,3.6
2018-03-18T04:21:11.898Z,3.5
2018-03-18T04:22:14.260Z,3.5
2018-03-18T04:23:16.676Z,3.5
2018-03-18T04:24:19.079Z,3.5
2018-03-18T04:25:21.553Z,3.6
2018-03-18T04:26:24.206Z,3.6
2018-03-18T04:27:26.615Z,3.8
2018-03-18T04:28:29.033Z,3.6
2018-03-18T04:29:31.445Z,3.5
2018-03-18T04:30:33.863Z,3.5
2018-03-18T04:31:36.272Z,3.5
2018-03-18T04:32:38.691Z,3.5
2018-03-18T04:33:41.102Z,3.5
2018-03-18T04:34:43.513Z,3.5
2018-03-18T04:35:46.213Z,3.7
2018-03-18T04:36:48.924Z,3.5
2018-03-18T04:37:51.338Z,3.6
2018-03-18T04:38:53.754Z,3.7
2018-03-18T04:39:56.171Z,3.6
2018-03-18T04:40:58.596Z,3.5
2018-03-18T04:42:01.010Z,3.6
2018-03-18T04:43:03.426Z,3.6
2018-03-18T04:44:05.845Z,3.5
2018-03-18T04:45:08.254Z,3.5
2018-03-18T04:46:10.665Z,3.6
2018-03-18T04:47:13.072Z,3.7
2018-03-18T04:48:15.481Z,3.7
2018-03-18T04:49:17.892Z,3.6
2018-03-18T04:50:20.313Z,3.7
2018-03-18T04:51:23.031Z,3.5
2018-03-18T04:52:25.442Z,3.5
2018-03-18T04:53:27.862Z,3.5
2018-03-18T04:54:30.275Z,3.6
2018-03-18T04:55:32.693Z,3.5
2018-03-18T04:56:35.108Z,3.6
2018-03-18T04:57:37.521Z,3.6
2018-03-18T04:58:39.935Z,3.5
2018-03-18T04:59:42.361Z,3.6
2018-03-18T05:00:44.776Z,3.5
2018-03-18T05:01:47.181Z,3.5
2018-03-18T05:02:49.912Z,3.5
2018-03-18T05:03:52.319Z,3.5
2018-03-18T05:04:55.018Z,3.5
2018-03-18T05:05:57.429Z,3.7
2018-03-18T05:06:59.838Z,3.5
2018-03-18T05:08:02.538Z,3.6
2018-03-18T05:09:04.959Z,3.6
2018-03-18T05:10:07.365Z,3.6
2018-03-18T05:11:10.064Z,3.5
2018-03-18T05:12:12.761Z,3.5
2018-03-18T05:13:15.173Z,3.5
2018-03-18T05:14:17.587Z,3.5
2018-03-18T05:15:19.990Z,3.5
2018-03-18T05:16:22.692Z,3.5
2018-03-18T05:17:25.098Z,3.5
2018-03-18T05:18:27.508Z,3.5
2018-03-18T05:19:30.215Z,3.6
2018-03-18T05:20:32.625Z,3.6
2018-03-18T05:21:35.049Z,3.6
2018-03-18T05:22:37.459Z,3.5
2018-03-18T05:23:40.142Z,3.5
2018-03-18T05:24:42.857Z,3.5
2018-03-18T05:25:45.254Z,3.5
2018-03-18T05:26:47.979Z,3.5
2018-03-18T05:27:50.402Z,3.5
2018-03-18T05:28:52.812Z,3.5
2018-03-18T05:29:55.224Z,3.5
2018-03-18T05:30:57.642Z,3.5
2018-03-18T05:32:00.325Z,3.6
2018-03-18T05:33:02.749Z,3.6
2018-03-18T05:34:05.167Z,3.6
2018-03-18T05:35:07.854Z,3.6
2018-03-18T05:36:10.269Z,3.6
2018-03-18T05:37:12.688Z,3.5
2018-03-18T05:38:15.382Z,3.5
2018-03-18T05:39:17.810Z,3.5
2018-03-18T05:40:20.228Z,3.5
2018-03-18T05:41:22.634Z,3.5
2018-03-18T05:42:25.050Z,3.5
2018-03-18T05:43:27.741Z,3.5
2018-03-18T05:44:30.455Z,3.7
2018-03-18T05:45:32.865Z,3.6
2018-03-18T05:46:35.291Z,3.6
2018-03-18T05:47:37.698Z,3.6
2018-03-18T05:48:40.117Z,3.6
2018-03-18T05:49:42.542Z,3.5
2018-03-18T05:50:44.952Z,3.5
2018-03-18T05:51:47.666Z,3.5
2018-03-18T05:52:50.377Z,3.5
2018-03-18T05:53:53.070Z,3.5
2018-03-18T05:54:55.478Z,3.5
2018-03-18T05:55:58.184Z,3.5
2018-03-18T05:57:00.594Z,3.6
2018-03-18T05:58:02.999Z,3.6
2018-03-18T05:59:05.425Z,3.6
2018-03-18T06:00:07.827Z,3.6
2018-03-18T06:01:10.244Z,3.5
2018-03-18T06:02:12.952Z,3.5
2018-03-18T06:03:15.656Z,3.5
2018-03-18T06:04:18.360Z,3.6
2018-03-18T06:05:20.776Z,3.6
2018-03-18T06:06:23.176Z,3.5
2018-03-18T06:07:25.587Z,3.5
2018-03-18T06:08:28.003Z,3.5
2018-03-18T06:09:30.411Z,3.6
2018-03-18T06:10:32.825Z,3.7
2018-03-18T06:11:35.244Z,3.6
2018-03-18T06:12:37.647Z,3.6
2018-03-18T06:13:40.389Z,3.6
2018-03-18T06:14:42.804Z,3.5
2018-03-18T06:15:45.217Z,3.6
2018-03-18T06:16:47.639Z,3.5
2018-03-18T06:17:50.047Z,3.5
2018-03-18T06:18:52.456Z,3.6
2018-03-18T06:19:54.870Z,3.7
2018-03-18T06:20:57.275Z,3.6
2018-03-18T06:21:59.684Z,3.6
2018-03-18T06:23:02.111Z,3.6
2018-03-18T06:24:04.516Z,3.6
2018-03-18T06:25:06.946Z,3.5
2018-03-18T06:26:09.353Z,3.5
2018-03-18T06:27:11.762Z,3.5
2018-03-18T06:28:14.469Z,3.6
2018-03-18T06:29:16.891Z,3.8
2018-03-18T06:30:19.304Z,3.7
2018-03-18T06:31:21.738Z,3.6
2018-03-18T06:32:24.137Z,3.6
2018-03-18T06:33:26.552Z,3.6
2018-03-18T06:34:29.248Z,3.6
2018-03-18T06:35:31.670Z,3.6
2018-03-18T06:36:34.067Z,3.6
2018-03-18T06:37:36.483Z,3.5
2018-03-18T06:38:38.898Z,3.6
2018-03-18T06:39:41.313Z,3.7
2018-03-18T06:40:43.731Z,3.7
2018-03-18T06:41:46.138Z,3.7
2018-03-18T06:42:48.556Z,3.6
2018-03-18T06:43:50.965Z,3.6
2018-03-18T06:44:53.511Z,3.6
2018-03-18T06:45:56.432Z,3.6
2018-03-18T06:46:59.246Z,3.6
2018-03-18T06:48:01.872Z,3.5
2018-03-18T06:49:05.014Z,3.6
2018-03-18T06:50:07.444Z,3.6
2018-03-18T06:51:10.190Z,3.6
2018-03-18T06:52:12.604Z,3.5
2018-03-18T06:53:15.018Z,3.6
2018-03-18T06:54:17.431Z,3.7
2018-03-18T06:55:20.123Z,3.7
2018-03-18T06:56:22.551Z,3.8
2018-03-18T06:57:24.972Z,3.7
2018-03-18T06:58:27.376Z,3.8
2018-03-18T06:59:29.799Z,3.6
2018-03-18T07:00:32.510Z,3.7
2018-03-18T07:01:34.922Z,3.6
2018-03-18T07:02:37.339Z,3.6
2018-03-18T07:03:40.035Z,3.6
2018-03-18T07:04:42.451Z,3.7
2018-03-18T07:05:44.884Z,3.7
2018-03-18T07:06:47.292Z,3.7
2018-03-18T07:07:49.700Z,3.7
2018-03-18T07:08:52.112Z,3.7
2018-03-18T07:09:54.822Z,3.7
2018-03-18T07:10:57.228Z,3.6
2018-03-18T07:11:59.930Z,3.6
2018-03-18T07:13:02.644Z,3.6
2018-03-18T07:14:05.053Z,3.6
2018-03-18T07:15:07.470Z,3.6
2018-03-18T07:16:09.881Z,3.8
2018-03-18T07:17:12.292Z,3.8
2018-03-18T07:18:14.717Z,3.8
2018-03-18T07:19:17.120Z,3.7
2018-03-18T07:20:19.522Z,3.7
2018-03-18T07:21:21.948Z,3.6
2018-03-18T07:22:24.356Z,3.6
2018-03-18T07:23:26.774Z,3.7
2018-03-18T07:24:29.190Z,3.7
2018-03-18T07:25:31.608Z,3.8
2018-03-18T07:26:34.023Z,3.8
2018-03-18T07:27:36.451Z,3.7
2018-03-18T07:28:38.866Z,3.8
2018-03-18T07:29:41.287Z,3.8
2018-03-18T07:30:43.992Z,3.7
2018-03-18T07:31:46.688Z,3.7
2018-03-18T07:32:49.109Z,3.7
2018-03-18T07:33:51.523Z,3.7
2018-03-18T07:34:53.933Z,3.7
2018-03-18T07:35:56.344Z,3.8
2018-03-18T07:36:58.772Z,3.8
2018-03-18T07:38:01.490Z,3.7
2018-03-18T07:39:03.900Z,3.8
2018-03-18T07:40:06.323Z,3.8
2018-03-18T07:41:08.735Z,3.7
2018-03-18T07:42:11.465Z,3.7
2018-03-18T07:43:13.871Z,3.7
2018-03-18T07:44:16.295Z,3.8
2018-03-18T07:45:18.984Z,3.7
2018-03-18T07:46:21.413Z,3.9
2018-03-18T07:47:23.823Z,3.8
2018-03-18T07:48:26.240Z,3.8
2018-03-18T07:49:28.660Z,3.9
2018-03-18T07:50:31.404Z,3.8
2018-03-18T07:51:33.805Z,3.8
2018-03-18T07:52:36.524Z,3.8
2018-03-18T07:53:38.933Z,3.8
2018-03-18T07:54:41.362Z,3.8
2018-03-18T07:55:43.784Z,3.8
2018-03-18T07:56:46.201Z,3.8
2018-03-18T07:57:48.611Z,3.8
2018-03-18T07:58:51.328Z,3.8
2018-03-18T07:59:54.027Z,3.9
2018-03-18T08:00:56.444Z,3.9
2018-03-18T08:01:58.871Z,3.9
2018-03-18T08:03:01.569Z,3.8
2018-03-18T08:04:04.286Z,3.8
2018-03-18T08:05:06.703Z,3.8
2018-03-18T08:06:09.407Z,3.8
2018-03-18T08:07:12.118Z,3.8
2018-03-18T08:08:14.532Z,3.8
2018-03-18T08:09:16.947Z,3.8
2018-03-18T08:10:19.653Z,3.9
2018-03-18T08:11:22.074Z,3.9
2018-03-18T08:12:24.478Z,3.9
2018-03-18T08:13:26.898Z,3.8
2018-03-18T08:14:29.324Z,3.9
2018-03-18T08:15:31.748Z,3.9
2018-03-18T08:16:34.167Z,3.9
2018-03-18T08:17:36.584Z,3.9
2018-03-18T08:18:39.007Z,3.9
2018-03-18T08:19:41.434Z,4
2018-03-18T08:20:43.848Z,4
2018-03-18T08:21:46.259Z,4
2018-03-18T08:22:48.985Z,4.1
2018-03-18T08:23:51.402Z,4
2018-03-18T08:24:54.100Z,4
2018-03-18T08:25:56.535Z,4
2018-03-18T08:26:58.940Z,4
2018-03-18T08:28:01.651Z,4
2018-03-18T08:29:04.075Z,4.1
2018-03-18T08:30:06.498Z,4.2
2018-03-18T08:31:08.927Z,4.2
2018-03-18T08:32:11.355Z,4.1
2018-03-18T08:33:13.773Z,4.1
2018-03-18T08:34:16.545Z,4.1
2018-03-18T08:35:18.951Z,4.2
2018-03-18T08:36:21.359Z,4.1
2018-03-18T08:37:23.789Z,4.2
2018-03-18T08:38:26.497Z,4.1
2018-03-18T08:39:28.924Z,4.3
2018-03-18T08:40:31.340Z,4.2
2018-03-18T08:41:33.772Z,4.3
2018-03-18T08:42:36.482Z,4.3
2018-03-18T08:43:38.904Z,4.3
2018-03-18T08:44:41.340Z,4.4
2018-03-18T08:45:43.762Z,4.3
2018-03-18T08:46:46.226Z,4.3
2018-03-18T08:47:48.606Z,4.3
2018-03-18T08:48:51.030Z,4.4
2018-03-18T08:49:53.449Z,4.4
2018-03-18T08:50:55.878Z,4.4
2018-03-18T08:51:58.589Z,4.4
2018-03-18T08:53:01.016Z,4.4
2018-03-18T08:54:03.433Z,4.4
2018-03-18T08:55:05.868Z,4.4
2018-03-18T08:56:08.283Z,4.5
2018-03-18T08:57:11.131Z,4.5
2018-03-18T08:58:13.550Z,4.5
2018-03-18T08:59:15.976Z,4.6
2018-03-18T09:00:18.416Z,4.5
2018-03-18T09:01:20.899Z,4.5
2018-03-18T09:02:23.294Z,4.5
2018-03-18T09:03:25.722Z,4.5
2018-03-18T09:04:28.149Z,4.5
2018-03-18T09:05:30.864Z,4.5
2018-03-18T09:06:33.899Z,4.6
2018-03-18T09:07:36.612Z,4.6
2018-03-18T09:08:39.639Z,4.6
2018-03-18T09:09:42.342Z,4.6
2018-03-18T09:10:45.443Z,4.6
2018-03-18T09:11:48.940Z,4.6
2018-03-18T09:12:53.301Z,4.6
2018-03-18T09:13:56.629Z,4.6
2018-03-18T09:14:59.640Z,4.6
2018-03-18T09:16:02.073Z,4.6
2018-03-18T09:17:04.490Z,4.6
2018-03-18T09:18:06.913Z,4.6
2018-03-18T09:19:09.664Z,4.5
2018-03-18T09:20:12.373Z,4.6
2018-03-18T09:21:14.801Z,4.5
2018-03-18T09:22:17.509Z,4.5
2018-03-18T09:23:19.928Z,4.5
2018-03-18T09:24:22.363Z,4.5
2018-03-18T09:25:24.786Z,4.6
2018-03-18T09:26:27.196Z,4.6
2018-03-18T09:27:29.628Z,4.6
2018-03-18T09:28:32.060Z,4.5
2018-03-18T09:29:34.486Z,4.5
2018-03-18T09:30:36.919Z,4.5
2018-03-18T09:31:39.343Z,4.5
2018-03-18T09:32:41.780Z,4.6
2018-03-18T09:33:44.497Z,4.6
2018-03-18T09:34:46.923Z,4.6
2018-03-18T09:35:49.364Z,4.6
2018-03-18T09:36:51.768Z,4.5
2018-03-18T09:37:54.198Z,4.5
2018-03-18T09:38:56.620Z,4.5
2018-03-18T09:39:59.050Z,4.5
2018-03-18T09:41:01.477Z,4.6
2018-03-18T09:42:04.202Z,4.6
2018-03-18T09:43:06.624Z,4.6
2018-03-18T09:44:09.343Z,4.6
2018-03-18T09:45:12.046Z,4.6
2018-03-18T09:46:14.478Z,4.6
2018-03-18T09:47:17.485Z,4.6
2018-03-18T09:48:20.284Z,4.6
2018-03-18T09:49:22.713Z,4.6
2018-03-18T09:50:25.133Z,4.6
2018-03-18T09:51:27.555Z,4.6
2018-03-18T09:52:29.987Z,4.7
2018-03-18T09:53:32.402Z,4.6
2018-03-18T09:54:34.832Z,4.6
2018-03-18T09:55:37.259Z,4.6
2018-03-18T09:56:39.697Z,4.6
2018-03-18T09:57:42.121Z,4.6
2018-03-18T09:58:44.847Z,4.6
2018-03-18T09:59:47.261Z,4.7
2018-03-18T10:00:49.692Z,4.7
2018-03-18T10:01:52.120Z,4.7
2018-03-18T10:02:54.543Z,4.7
2018-03-18T10:03:56.968Z,4.7
2018-03-18T10:04:59.706Z,4.6
2018-03-18T10:06:02.125Z,4.6
2018-03-18T10:07:04.849Z,4.6
2018-03-18T10:08:07.584Z,4.6
2018-03-18T10:09:09.997Z,4.7
2018-03-18T10:10:12.431Z,4.7
2018-03-18T10:11:14.863Z,4.8
2018-03-18T10:12:17.291Z,4.7
2018-03-18T10:13:19.713Z,4.7
2018-03-18T10:14:22.139Z,4.7
2018-03-18T10:15:24.762Z,4.6
2018-03-18T10:16:27.203Z,4.7
2018-03-18T10:17:29.636Z,4.7
2018-03-18T10:18:32.054Z,4.8
2018-03-18T10:19:35.084Z,4.7
2018-03-18T10:20:38.082Z,4.7
2018-03-18T10:21:40.521Z,4.7
2018-03-18T10:22:42.950Z,4.7
2018-03-18T10:23:45.378Z,4.7
2018-03-18T10:24:47.809Z,4.7
2018-03-18T10:25:50.245Z,4.7
2018-03-18T10:26:52.682Z,4.7
2018-03-18T10:27:55.103Z,4.7
2018-03-18T10:28:58.122Z,4.8
2018-03-18T10:30:00.843Z,4.7
2018-03-18T10:31:03.280Z,4.7
2018-03-18T10:32:06.016Z,4.8
2018-03-18T10:33:08.432Z,4.7
2018-03-18T10:34:10.882Z,4.7
2018-03-18T10:35:13.302Z,4.7
2018-03-18T10:36:16.025Z,4.7
2018-03-18T10:37:18.736Z,4.7
2018-03-18T10:38:21.164Z,4.9
2018-03-18T10:39:23.602Z,4.8
2018-03-18T10:40:26.321Z,4.8
2018-03-18T10:41:28.746Z,4.8
2018-03-18T10:42:31.194Z,4.8
2018-03-18T10:43:33.616Z,4.8
2018-03-18T10:44:36.055Z,4.8
2018-03-18T10:45:38.485Z,4.9
2018-03-18T10:46:40.921Z,4.8
2018-03-18T10:47:43.353Z,4.9
2018-03-18T10:48:46.153Z,4.8
2018-03-18T10:49:48.847Z,4.8
2018-03-18T10:50:51.270Z,4.8
2018-03-18T10:51:53.703Z,4.8
2018-03-18T10:52:56.430Z,4.8
2018-03-18T10:53:59.156Z,4.8
2018-03-18T10:55:01.581Z,4.9
2018-03-18T10:56:04.022Z,4.9
2018-03-18T10:57:06.457Z,4.8
2018-03-18T10:58:08.884Z,4.8
2018-03-18T10:59:11.606Z,4.8
2018-03-18T11:00:14.032Z,4.8
2018-03-18T11:01:16.465Z,4.8
2018-03-18T11:02:19.194Z,4.8
2018-03-18T11:03:21.627Z,4.9
2018-03-18T11:04:24.047Z,4.9
2018-03-18T11:05:26.485Z,4.8
2018-03-18T11:06:28.926Z,4.8
2018-03-18T11:07:31.351Z,4.8
2018-03-18T11:08:33.772Z,4.7
2018-03-18T11:09:36.212Z,4.8
2018-03-18T11:10:38.937Z,4.8
2018-03-18T11:11:41.373Z,4.8
2018-03-18T11:12:43.803Z,4.8
2018-03-18T11:13:46.225Z,4.8
2018-03-18T11:14:48.660Z,4.8
2018-03-18T11:15:51.105Z,4.8
2018-03-18T11:16:53.819Z,4.7
2018-03-18T11:17:56.246Z,4.8
2018-03-18T11:18:58.965Z,4.9
2018-03-18T11:20:01.672Z,4.9
2018-03-18T11:21:04.117Z,4.8
2018-03-18T11:22:06.550Z,4.8
2018-03-18T11:23:08.969Z,4.8
2018-03-18T11:24:11.405Z,4.8
2018-03-18T11:25:13.836Z,4.8
2018-03-18T11:26:16.273Z,4.7
2018-03-18T11:27:18.702Z,4.8
2018-03-18T11:28:21.423Z,4.8
2018-03-18T11:29:23.849Z,4.8
2018-03-18T11:30:26.296Z,4.7
2018-03-18T11:31:28.724Z,4.8
2018-03-18T11:32:31.148Z,4.7
2018-03-18T11:33:33.732Z,4.8
2018-03-18T11:34:36.727Z,4.8
2018-03-18T11:35:41.019Z,4.8
2018-03-18T11:36:44.412Z,4.8
2018-03-18T11:37:48.608Z,4.7
2018-03-18T11:38:52.447Z,4.9
2018-03-18T11:39:55.656Z,4.7
2018-03-18T11:40:58.392Z,4.8
2018-03-18T11:42:00.823Z,4.7
2018-03-18T11:43:03.256Z,4.8
2018-03-18T11:44:05.695Z,4.8
2018-03-18T11:45:08.408Z,4.7
2018-03-18T11:46:10.847Z,4.8
2018-03-18T11:47:13.276Z,4.9
2018-03-18T11:48:15.978Z,5
2018-03-18T11:49:18.418Z,4.8
2018-03-18T11:50:20.845Z,4.9
2018-03-18T11:51:23.270Z,4.8
2018-03-18T11:52:25.703Z,4.8
2018-03-18T11:53:28.138Z,4.7
2018-03-18T11:54:30.557Z,4.9
2018-03-18T11:55:32.989Z,4.8
2018-03-18T11:56:35.423Z,4.8
2018-03-18T11:57:37.860Z,4.8
2018-03-18T11:58:40.292Z,4.8
2018-03-18T11:59:42.734Z,4.8
2018-03-18T12:00:45.155Z,4.8
2018-03-18T12:01:47.594Z,4.9
2018-03-18T12:02:50.026Z,4.8
2018-03-18T12:03:52.737Z,4.9
2018-03-18T12:04:55.162Z,4.9
2018-03-18T12:05:57.600Z,4.8
2018-03-18T12:07:00.026Z,4.9
2018-03-18T12:08:02.463Z,4.9
2018-03-18T12:09:04.894Z,4.9
2018-03-18T12:10:07.940Z,4.9
2018-03-18T12:11:10.355Z,4.9
2018-03-18T12:12:13.092Z,4.8
2018-03-18T12:13:15.801Z,4.8
2018-03-18T12:14:18.242Z,4.8
2018-03-18T12:15:20.670Z,4.8
2018-03-18T12:16:23.097Z,4.8
2018-03-18T12:17:25.520Z,4.9
2018-03-18T12:18:27.956Z,4.9
2018-03-18T12:19:30.422Z,4.9
2018-03-18T12:20:32.814Z,4.8
2018-03-18T12:21:35.243Z,4.8
2018-03-18T12:22:37.668Z,4.8
2018-03-18T12:23:40.390Z,4.8
2018-03-18T12:24:42.831Z,4.9
2018-03-18T12:25:45.253Z,4.9
2018-03-18T12:26:47.688Z,4.9
2018-03-18T12:27:50.425Z,4.8
2018-03-18T12:28:52.857Z,4.9
2018-03-18T12:29:55.297Z,4.8
2018-03-18T12:30:58.708Z,4.8
2018-03-18T12:32:01.398Z,4.9
2018-03-18T12:33:05.044Z,4.8
2018-03-18T12:34:08.461Z,4.9
2018-03-18T12:35:12.151Z,4.8
2018-03-18T12:36:14.571Z,5
2018-03-18T12:37:17.315Z,4.9
2018-03-18T12:38:19.752Z,4.8
2018-03-18T12:39:22.181Z,4.9
2018-03-18T12:40:24.618Z,4.9
2018-03-18T12:41:27.045Z,4.9
2018-03-18T12:42:29.790Z,4.8
2018-03-18T12:43:32.208Z,4.9
2018-03-18T12:44:34.630Z,4.9
2018-03-18T12:45:37.056Z,4.8
2018-03-18T12:46:39.497Z,4.8
2018-03-18T12:47:41.927Z,4.9
2018-03-18T12:48:44.359Z,4.8
2018-03-18T12:49:46.792Z,4.9
2018-03-18T12:50:49.216Z,5
2018-03-18T12:51:51.654Z,4.9
2018-03-18T12:52:54.094Z,5
2018-03-18T12:53:56.520Z,4.9
2018-03-18T12:54:58.963Z,4.9
2018-03-18T12:56:01.712Z,4.9
2018-03-18T12:57:04.113Z,4.9
2018-03-18T12:58:06.837Z,4.9
2018-03-18T12:59:09.269Z,5
2018-03-18T13:00:11.697Z,5
2018-03-18T13:01:14.130Z,5
2018-03-18T13:02:16.572Z,5
2018-03-18T13:03:19.289Z,4.9
2018-03-18T13:04:21.728Z,5.1
2018-03-18T13:05:24.163Z,4.9
2018-03-18T13:06:26.602Z,5
2018-03-18T13:07:29.032Z,5
2018-03-18T13:08:31.472Z,5
2018-03-18T13:09:33.914Z,5
2018-03-18T13:10:36.333Z,5
2018-03-18T13:11:38.787Z,4.9
2018-03-18T13:12:41.219Z,4.9
2018-03-18T13:13:43.648Z,5
2018-03-18T13:14:46.089Z,4.9
2018-03-18T13:15:48.530Z,5
2018-03-18T13:16:51.034Z,4.9
2018-03-18T13:17:53.404Z,4.9
2018-03-18T13:18:56.131Z,4.9
2018-03-18T13:19:58.565Z,4.9
2018-03-18T13:21:01.010Z,5
2018-03-18T13:22:03.428Z,5
2018-03-18T13:23:05.868Z,5
2018-03-18T13:24:08.632Z,5
2018-03-18T13:25:11.064Z,4.9
2018-03-18T13:26:13.497Z,4.9
2018-03-18T13:27:15.925Z,4.9
2018-03-18T13:28:18.352Z,5
2018-03-18T13:29:20.805Z,5
2018-03-18T13:30:23.243Z,5
2018-03-18T13:31:25.671Z,4.9
2018-03-18T13:32:28.107Z,5
2018-03-18T13:33:30.844Z,4.9
2018-03-18T13:34:33.272Z,4.9
2018-03-18T13:35:35.715Z,4.9
2018-03-18T13:36:38.440Z,5
2018-03-18T13:37:41.157Z,5
2018-03-18T13:38:43.591Z,5
2018-03-18T13:39:46.019Z,5
2018-03-18T13:40:48.454Z,4.9
2018-03-18T13:41:51.184Z,4.9
2018-03-18T13:42:53.595Z,4.9
2018-03-18T13:43:56.040Z,5
2018-03-18T13:44:58.475Z,5
2018-03-18T13:46:00.913Z,5
2018-03-18T13:47:03.352Z,4.9
2018-03-18T13:48:05.781Z,4.9
2018-03-18T13:49:08.217Z,4.9
2018-03-18T13:50:10.658Z,4.8
2018-03-18T13:51:13.092Z,5
2018-03-18T13:52:15.533Z,5
2018-03-18T13:53:17.956Z,5
2018-03-18T13:54:20.386Z,4.9
2018-03-18T13:55:23.119Z,4.8
2018-03-18T13:56:25.553Z,4.9
2018-03-18T13:57:27.980Z,4.8
2018-03-18T13:58:30.425Z,5
2018-03-18T13:59:32.855Z,5
2018-03-18T14:00:35.292Z,4.9
2018-03-18T14:01:37.727Z,4.9
2018-03-18T14:02:40.144Z,4.9
2018-03-18T14:03:42.591Z,4.8
2018-03-18T14:04:45.027Z,4.9
2018-03-18T14:05:47.451Z,5
2018-03-18T14:06:50.175Z,5
2018-03-18T14:07:52.881Z,4.9
2018-03-18T14:08:55.313Z,4.9
2018-03-18T14:09:57.754Z,4.9
2018-03-18T14:11:00.193Z,4.8
2018-03-18T14:12:02.634Z,4.9
2018-03-18T14:13:05.367Z,4.8
2018-03-18T14:14:07.791Z,4.9
2018-03-18T14:15:10.227Z,5
2018-03-18T14:16:12.658Z,5
2018-03-18T14:17:15.084Z,4.8
2018-03-18T14:18:17.523Z,4.8
2018-03-18T14:19:19.948Z,4.8
2018-03-18T14:20:22.382Z,4.8
2018-03-18T14:21:24.822Z,5
2018-03-18T14:22:27.251Z,4.9
2018-03-18T14:23:29.682Z,4.9
2018-03-18T14:24:32.112Z,4.9